Time;durP1;ratioP1;P1;durP2;ratioP2;P2;SDS_P1;SDS_P2;PMS_P1;PMS_P2;Temp;Humidity;BMP_temperature;BMP_pressure;BME280_temperature;BME280_humidity;BME280_pressure;Samples;Min_cycle;Max_cycle;Signal;HPM_P1;HPM_P2
2022/07/08 00:00:08;;;;;;;3.10;1.67;;;;;;;;;;6155620;23;20028;-46
2022/07/08 00:02:35;;;;;;;4.05;1.73;;;;;;;;;;6161207;23;20024;-46
2022/07/08 00:05:02;;;;;;;2.20;1.33;;;;;;;;;;6141358;23;20395;-48
2022/07/08 00:07:28;;;;;;;4.30;2.10;;;;;;;;;;6162948;23;20048;-45
2022/07/08 00:09:54;;;;;;;4.15;2.00;;;;;;;;;;6166095;23;20013;-45
2022/07/08 00:12:22;;;;;;;1.95;1.70;;;;;;;;;;6168399;23;20095;-46
2022/07/08 00:14:49;;;;;;;2.13;1.80;;;;;;;;;;6160773;23;20422;-45
2022/07/08 00:17:16;;;;;;;2.78;2.22;;;;;;;;;;6176156;23;20076;-45
2022/07/08 00:19:42;;;;;;;2.50;2.10;;;;;;;;;;6143085;23;20431;-46
2022/07/08 00:22:09;;;;;;;2.85;2.00;;;;;;;;;;6170635;23;20077;-45
2022/07/08 00:24:35;;;;;;;2.72;2.03;;;;;;;;;;6153544;23;20013;-46
2022/07/08 00:27:02;;;;;;;4.78;1.90;;;;;;;;;;6169749;23;20045;-45
2022/07/08 00:29:30;;;;;;;2.17;1.98;;;;;;;;;;6163214;23;20048;-46
2022/07/08 00:31:56;;;;;;;3.00;2.35;;;;;;;;;;6164777;23;20023;-45
2022/07/08 00:34:22;;;;;;;4.00;1.67;;;;;;;;;;6147640;23;20017;-47
2022/07/08 00:36:49;;;;;;;1.90;1.70;;;;;;;;;;6168449;23;20502;-46
2022/07/08 00:39:15;;;;;;;6.40;2.13;;;;;;;;;;6161070;23;20148;-47
2022/07/08 00:41:42;;;;;;;1.75;1.63;;;;;;;;;;6170551;23;20048;-48
2022/07/08 00:44:08;;;;;;;3.33;1.80;;;;;;;;;;6162805;23;20017;-46
2022/07/08 00:46:36;;;;;;;1.85;1.60;;;;;;;;;;6163052;23;20371;-47
2022/07/08 00:49:03;;;;;;;4.13;2.00;;;;;;;;;;6159771;23;20069;-47
2022/07/08 00:51:30;;;;;;;2.72;2.10;;;;;;;;;;6165105;23;20055;-45
2022/07/08 00:53:57;;;;;;;3.45;2.08;;;;;;;;;;6155961;23;20052;-48
2022/07/08 00:56:24;;;;;;;1.80;1.70;;;;;;;;;;6166221;23;20484;-47
2022/07/08 00:58:50;;;;;;;2.80;1.80;;;;;;;;;;6172151;23;20013;-46
2022/07/08 01:01:17;;;;;;;1.77;1.30;;;;;;;;;;6157167;23;20390;-45
2022/07/08 01:03:45;;;;;;;2.17;1.70;;;;;;;;;;6164424;23;20063;-47
2022/07/08 01:06:12;;;;;;;2.17;1.45;;;;;;;;;;6157621;23;20733;-48
2022/07/08 01:08:39;;;;;;;1.55;1.42;;;;;;;;;;6171735;23;20024;-45
2022/07/08 01:11:06;;;;;;;1.75;1.65;;;;;;;;;;6153322;23;20014;-46
2022/07/08 01:13:33;;;;;;;4.22;1.73;;;;;;;;;;6174720;23;20051;-49
2022/07/08 01:15:59;;;;;;;2.22;1.95;;;;;;;;;;6161732;23;20581;-44
2022/07/08 01:18:27;;;;;;;2.20;2.00;;;;;;;;;;6171306;23;20525;-47
2022/07/08 01:20:55;;;;;;;3.75;2.08;;;;;;;;;;6154910;23;20564;-44
2022/07/08 01:23:21;;;;;;;5.30;2.10;;;;;;;;;;6172486;23;20013;-44
2022/07/08 01:25:48;;;;;;;2.47;1.73;;;;;;;;;;6158648;23;20316;-45
2022/07/08 01:28:15;;;;;;;4.07;1.90;;;;;;;;;;6160773;23;20071;-47
2022/07/08 01:30:42;;;;;;;4.18;2.20;;;;;;;;;;6167496;23;20013;-43
2022/07/08 01:33:08;;;;;;;2.60;2.08;;;;;;;;;;6175306;23;20040;-45
2022/07/08 01:35:35;;;;;;;2.85;1.75;;;;;;;;;;6161078;23;20020;-46
2022/07/08 01:38:03;;;;;;;2.05;1.80;;;;;;;;;;6169864;23;20021;-45
2022/07/08 01:40:29;;;;;;;1.83;1.60;;;;;;;;;;6156700;23;20048;-46
2022/07/08 01:42:56;;;;;;;3.13;2.00;;;;;;;;;;6163754;23;20017;-45
2022/07/08 01:45:22;;;;;;;2.60;2.00;;;;;;;;;;6148692;23;20563;-45
2022/07/08 01:47:49;;;;;;;2.78;2.00;;;;;;;;;;6171357;23;20043;-46
2022/07/08 01:50:15;;;;;;;3.13;2.33;;;;;;;;;;6170291;23;20044;-45
2022/07/08 01:52:42;;;;;;;2.78;2.17;;;;;;;;;;6165522;23;20068;-48
2022/07/08 01:55:11;;;;;;;2.20;2.10;;;;;;;;;;6167195;23;20447;-45
2022/07/08 01:57:37;;;;;;;2.03;1.80;;;;;;;;;;6166937;23;20017;-44
2022/07/08 02:00:05;;;;;;;1.85;1.70;;;;;;;;;;6164980;23;20040;-47
2022/07/08 02:02:32;;;;;;;3.97;2.15;;;;;;;;;;6170283;23;20040;-44
2022/07/08 02:04:58;;;;;;;2.65;1.98;;;;;;;;;;6173386;23;20039;-46
2022/07/08 02:07:25;;;;;;;1.85;1.75;;;;;;;;;;6153388;23;20044;-46
2022/07/08 02:09:51;;;;;;;3.55;2.20;;;;;;;;;;6174653;23;20040;-50
2022/07/08 02:12:18;;;;;;;2.50;2.30;;;;;;;;;;6161555;23;20017;-45
2022/07/08 02:14:45;;;;;;;1.85;1.75;;;;;;;;;;6174698;23;20559;-44
2022/07/08 02:17:11;;;;;;;3.15;1.77;;;;;;;;;;6159450;23;20021;-45
2022/07/08 02:19:38;;;;;;;3.25;1.92;;;;;;;;;;6171239;23;20017;-45
2022/07/08 02:22:05;;;;;;;2.67;2.45;;;;;;;;;;6158494;23;20020;-45
2022/07/08 02:24:32;;;;;;;2.30;1.42;;;;;;;;;;6174907;23;20013;-47
2022/07/08 02:26:58;;;;;;;2.55;2.13;;;;;;;;;;6156366;23;20063;-47
2022/07/08 02:29:26;;;;;;;3.72;1.98;;;;;;;;;;6172058;23;20040;-47
2022/07/08 02:31:52;;;;;;;2.30;2.10;;;;;;;;;;6164699;23;20338;-47
2022/07/08 02:34:19;;;;;;;3.65;2.25;;;;;;;;;;6175449;23;20085;-46
2022/07/08 02:36:45;;;;;;;2.22;2.03;;;;;;;;;;6147163;23;20611;-47
2022/07/08 02:39:12;;;;;;;2.88;2.60;;;;;;;;;;6178269;23;20395;-46
2022/07/08 02:41:39;;;;;;;2.83;2.53;;;;;;;;;;6153324;23;20416;-45
2022/07/08 02:44:06;;;;;;;3.17;2.30;;;;;;;;;;6172286;23;20021;-47
2022/07/08 02:46:35;;;;;;;2.83;2.47;;;;;;;;;;6167601;23;20083;-45
2022/07/08 02:49:01;;;;;;;3.10;2.83;;;;;;;;;;6169366;23;20037;-46
2022/07/08 02:51:28;;;;;;;3.10;2.85;;;;;;;;;;6164521;23;20021;-47
2022/07/08 02:53:57;;;;;;;4.57;2.80;;;;;;;;;;6169336;23;20025;-46
2022/07/08 02:56:23;;;;;;;3.53;2.35;;;;;;;;;;6167444;23;20021;-46
2022/07/08 02:58:53;;;;;;;3.67;2.33;;;;;;;;;;6159686;23;20013;-45
2022/07/08 03:01:20;;;;;;;2.28;2.08;;;;;;;;;;6159923;23;20630;-45
2022/07/08 03:03:48;;;;;;;2.90;2.22;;;;;;;;;;6169888;23;20033;-45
2022/07/08 03:06:14;;;;;;;3.90;2.15;;;;;;;;;;6158479;23;20016;-47
2022/07/08 03:08:41;;;;;;;2.38;2.17;;;;;;;;;;6170904;23;20017;-46
2022/07/08 03:11:07;;;;;;;2.90;2.15;;;;;;;;;;6170870;23;20017;-46
2022/07/08 03:13:35;;;;;;;3.67;2.03;;;;;;;;;;6156133;23;20017;-45
2022/07/08 03:16:02;;;;;;;2.78;2.38;;;;;;;;;;6171599;23;20048;-45
2022/07/08 03:18:28;;;;;;;4.18;2.72;;;;;;;;;;6177198;23;20089;-45
2022/07/08 03:20:56;;;;;;;3.28;2.70;;;;;;;;;;6162625;23;20462;-47
2022/07/08 03:23:23;;;;;;;2.50;2.30;;;;;;;;;;6173287;23;20048;-45
2022/07/08 03:25:49;;;;;;;3.75;2.92;;;;;;;;;;6157384;23;20029;-47
2022/07/08 03:28:15;;;;;;;3.58;3.28;;;;;;;;;;6170036;23;20079;-43
2022/07/08 03:30:42;;;;;;;2.70;2.50;;;;;;;;;;6172189;23;20046;-44
2022/07/08 03:33:09;;;;;;;2.80;2.20;;;;;;;;;;6146339;23;20017;-44
2022/07/08 03:35:35;;;;;;;2.78;2.58;;;;;;;;;;6176516;23;20013;-45
2022/07/08 03:38:03;;;;;;;4.25;2.75;;;;;;;;;;6164088;23;20025;-45
2022/07/08 03:43:13;;;;;;;3.88;3.10;;;;;;;;;;6160696;23;20013;-44
2022/07/08 03:45:40;;;;;;;3.60;2.90;;;;;;;;;;6157332;23;20017;-44
2022/07/08 03:48:06;;;;;;;5.07;3.08;;;;;;;;;;6170517;23;20025;-45
2022/07/08 03:50:33;;;;;;;3.10;2.80;;;;;;;;;;6160300;23;20020;-46
2022/07/08 03:53:00;;;;;;;3.58;2.92;;;;;;;;;;6164779;23;20024;-47
2022/07/08 03:55:28;;;;;;;3.53;2.55;;;;;;;;;;6169314;23;20655;-44
2022/07/08 03:57:56;;;;;;;5.82;2.85;;;;;;;;;;6166666;23;20025;-45
2022/07/08 04:00:23;;;;;;;3.70;2.75;;;;;;;;;;6167347;23;20037;-49
2022/07/08 04:02:52;;;;;;;4.63;2.60;;;;;;;;;;6165875;23;20052;-46
2022/07/08 04:05:18;;;;;;;3.47;3.10;;;;;;;;;;6164565;23;20024;-45
2022/07/08 04:07:45;;;;;;;4.20;3.05;;;;;;;;;;6172595;23;20012;-45
2022/07/08 04:10:11;;;;;;;3.15;2.70;;;;;;;;;;6169126;23;20063;-47
2022/07/08 04:12:39;;;;;;;4.68;2.80;;;;;;;;;;6166266;23;20013;-45
2022/07/08 04:15:06;;;;;;;4.28;2.92;;;;;;;;;;6155605;23;20021;-47
2022/07/08 04:17:34;;;;;;;3.55;2.55;;;;;;;;;;6165742;23;20074;-46
2022/07/08 04:20:01;;;;;;;5.43;3.13;;;;;;;;;;6171328;23;20349;-48
2022/07/08 04:22:27;;;;;;;4.25;3.30;;;;;;;;;;6167315;23;20071;-44
2022/07/08 04:24:54;;;;;;;3.78;3.42;;;;;;;;;;6165087;23;20036;-49
2022/07/08 04:27:21;;;;;;;3.53;3.10;;;;;;;;;;6166088;23;20017;-45
2022/07/08 04:29:48;;;;;;;6.00;3.83;;;;;;;;;;6161937;23;20017;-45
2022/07/08 04:32:15;;;;;;;4.38;3.97;;;;;;;;;;6164470;23;20470;-45
2022/07/08 04:34:41;;;;;;;5.20;3.53;;;;;;;;;;6173791;23;20025;-46
2022/07/08 04:37:08;;;;;;;6.18;3.63;;;;;;;;;;6159175;23;20021;-44
2022/07/08 04:39:34;;;;;;;4.35;3.42;;;;;;;;;;6172117;23;20013;-44
2022/07/08 04:42:01;;;;;;;6.05;4.03;;;;;;;;;;6159410;23;20017;-45
2022/07/08 04:44:27;;;;;;;5.72;4.85;;;;;;;;;;6178680;23;20017;-44
2022/07/08 04:46:55;;;;;;;7.60;4.60;;;;;;;;;;6164764;23;20019;-46
2022/07/08 04:49:23;;;;;;;7.32;4.72;;;;;;;;;;6165467;23;20016;-46
2022/07/08 04:51:50;;;;;;;8.68;5.25;;;;;;;;;;6170889;23;20021;-45
2022/07/08 04:54:16;;;;;;;4.80;4.28;;;;;;;;;;6164984;23;20017;-47
2022/07/08 04:56:43;;;;;;;5.88;3.85;;;;;;;;;;6171397;23;20607;-45
2022/07/08 04:59:09;;;;;;;4.65;3.92;;;;;;;;;;6165994;23;20017;-44
2022/07/08 05:01:36;;;;;;;5.63;4.35;;;;;;;;;;6164330;23;20072;-47
2022/07/08 05:04:04;;;;;;;4.15;3.75;;;;;;;;;;6165917;23;20040;-44
2022/07/08 05:06:31;;;;;;;5.93;3.97;;;;;;;;;;6163938;23;20424;-46
2022/07/08 05:08:58;;;;;;;5.03;3.95;;;;;;;;;;6167565;23;20013;-44
2022/07/08 05:11:24;;;;;;;5.38;3.40;;;;;;;;;;6166075;23;20017;-43
2022/07/08 05:13:51;;;;;;;3.78;2.75;;;;;;;;;;6165314;23;20071;-44
2022/07/08 05:16:17;;;;;;;2.97;2.65;;;;;;;;;;6170532;23;20017;-45
2022/07/08 05:18:44;;;;;;;4.35;2.80;;;;;;;;;;6159647;23;20013;-45
2022/07/08 05:21:11;;;;;;;4.05;3.15;;;;;;;;;;6163898;23;20014;-48
2022/07/08 05:23:39;;;;;;;3.28;2.97;;;;;;;;;;6165100;23;20028;-44
2022/07/08 05:26:08;;;;;;;3.67;3.08;;;;;;;;;;6164028;23;20340;-45
2022/07/08 05:28:36;;;;;;;4.32;3.35;;;;;;;;;;6166805;23;20017;-46
2022/07/08 05:31:03;;;;;;;3.63;3.33;;;;;;;;;;6158714;23;20013;-45
2022/07/08 05:33:30;;;;;;;5.43;3.72;;;;;;;;;;6168519;23;20085;-43
2022/07/08 05:35:56;;;;;;;4.03;3.10;;;;;;;;;;6160121;23;20052;-46
2022/07/08 05:38:24;;;;;;;3.58;3.28;;;;;;;;;;6169825;23;20025;-46
2022/07/08 05:40:51;;;;;;;5.30;3.50;;;;;;;;;;6159518;23;20021;-45
2022/07/08 05:43:18;;;;;;;3.88;3.47;;;;;;;;;;6163486;23;20021;-44
2022/07/08 05:45:44;;;;;;;5.45;3.80;;;;;;;;;;6168641;23;20020;-45
2022/07/08 05:48:10;;;;;;;4.88;4.10;;;;;;;;;;6161311;23;20013;-45
2022/07/08 05:50:37;;;;;;;5.80;4.13;;;;;;;;;;6154391;23;20017;-44
2022/07/08 05:53:04;;;;;;;5.20;4.70;;;;;;;;;;6169616;23;20024;-44
2022/07/08 05:55:32;;;;;;;5.03;4.30;;;;;;;;;;6159616;23;20609;-43
2022/07/08 05:57:59;;;;;;;4.90;4.47;;;;;;;;;;6163792;23;20021;-44
2022/07/08 06:00:25;;;;;;;7.63;4.43;;;;;;;;;;6156627;23;20017;-48
2022/07/08 06:02:52;;;;;;;5.93;4.90;;;;;;;;;;6164574;23;20671;-44
2022/07/08 06:05:18;;;;;;;7.40;4.72;;;;;;;;;;6149528;23;20112;-44
2022/07/08 06:07:45;;;;;;;6.50;4.80;;;;;;;;;;6172643;23;20379;-44
2022/07/08 06:10:12;;;;;;;5.85;4.95;;;;;;;;;;6149192;23;20376;-45
2022/07/08 06:12:39;;;;;;;6.68;4.72;;;;;;;;;;6174311;23;20035;-46
2022/07/08 06:15:07;;;;;;;4.68;4.25;;;;;;;;;;6169723;23;20021;-47
2022/07/08 06:17:33;;;;;;;5.63;4.80;;;;;;;;;;6154531;23;20028;-44
2022/07/08 06:20:00;;;;;;;5.90;4.80;;;;;;;;;;6172736;23;20044;-46
2022/07/08 06:22:27;;;;;;;5.57;4.72;;;;;;;;;;6157757;23;20043;-45
2022/07/08 06:24:55;;;;;;;4.72;4.13;;;;;;;;;;6169839;23;20124;-47
2022/07/08 06:27:21;;;;;;;5.30;4.80;;;;;;;;;;6156598;23;20044;-46
2022/07/08 06:29:49;;;;;;;7.22;4.78;;;;;;;;;;6168150;23;20023;-45
2022/07/08 06:32:16;;;;;;;6.22;4.55;;;;;;;;;;6159396;23;20024;-47
2022/07/08 06:34:43;;;;;;;4.93;4.47;;;;;;;;;;6171804;23;20036;-44
2022/07/08 06:37:10;;;;;;;9.32;4.85;;;;;;;;;;6154442;23;20100;-45
2022/07/08 06:39:36;;;;;;;5.03;4.25;;;;;;;;;;6169370;23;20064;-45
2022/07/08 06:42:03;;;;;;;5.65;4.45;;;;;;;;;;6163073;23;20036;-45
2022/07/08 06:44:29;;;;;;;6.10;4.70;;;;;;;;;;6178471;23;20044;-49
2022/07/08 06:46:57;;;;;;;5.22;4.10;;;;;;;;;;6168382;23;20167;-47
2022/07/08 06:49:24;;;;;;;4.43;3.92;;;;;;;;;;6169550;23;20013;-45
2022/07/08 06:51:51;;;;;;;5.07;3.83;;;;;;;;;;6174466;23;20017;-44
2022/07/08 06:54:36;;;;;;;4.07;3.65;;;;;;;;;;6165302;23;20049;-44
2022/07/08 06:57:02;;;;;;;5.05;4.55;;;;;;;;;;6163713;23;20017;-47
2022/07/08 06:59:29;;;;;;;3.90;3.60;;;;;;;;;;6172668;23;20013;-44
2022/07/08 07:01:56;;;;;;;6.05;3.47;;;;;;;;;;6164166;23;20595;-48
2022/07/08 07:04:23;;;;;;;5.03;3.78;;;;;;;;;;6170905;23;20017;-47
2022/07/08 07:06:50;;;;;;;4.78;4.35;;;;;;;;;;6164507;23;20013;-44
2022/07/08 07:09:16;;;;;;;4.22;3.60;;;;;;;;;;6175218;23;20373;-43
2022/07/08 07:11:43;;;;;;;4.95;3.67;;;;;;;;;;6163801;23;20042;-45
2022/07/08 07:14:09;;;;;;;4.50;3.55;;;;;;;;;;6162280;23;20348;-46
2022/07/08 07:16:36;;;;;;;4.55;3.83;;;;;;;;;;6169767;23;20021;-44
2022/07/08 07:19:02;;;;;;;3.85;3.25;;;;;;;;;;6168384;23;20177;-46
2022/07/08 07:21:30;;;;;;;7.43;3.03;;;;;;;;;;6169770;23;20707;-44
2022/07/08 07:23:56;;;;;;;4.32;3.15;;;;;;;;;;6168020;23;20024;-44
2022/07/08 07:26:23;;;;;;;6.00;3.05;;;;;;;;;;6169252;23;20013;-45
2022/07/08 07:28:49;;;;;;;3.20;2.70;;;;;;;;;;6167067;23;20017;-44
2022/07/08 07:31:16;;;;;;;3.88;2.70;;;;;;;;;;6170823;23;20013;-45
2022/07/08 07:33:42;;;;;;;3.22;2.78;;;;;;;;;;6168830;23;20013;-48
2022/07/08 07:36:09;;;;;;;3.38;2.90;;;;;;;;;;6168887;23;20181;-47
2022/07/08 07:38:37;;;;;;;5.68;2.78;;;;;;;;;;6157420;23;20028;-45
2022/07/08 07:41:03;;;;;;;2.95;2.60;;;;;;;;;;6058362;23;20429;-45
2022/07/08 07:43:30;;;;;;;6.15;2.42;;;;;;;;;;6044237;23;20023;-44
2022/07/08 07:45:56;;;;;;;3.28;1.90;;;;;;;;;;6056368;23;20338;-44
2022/07/08 07:48:23;;;;;;;2.08;1.88;;;;;;;;;;6058842;23;20019;-44
2022/07/08 07:50:49;;;;;;;2.92;2.20;;;;;;;;;;6059811;23;20066;-47
2022/07/08 07:53:16;;;;;;;4.15;1.80;;;;;;;;;;6057112;23;20022;-47
2022/07/08 07:55:44;;;;;;;2.00;1.85;;;;;;;;;;6061360;23;20019;-47
2022/07/08 07:58:10;;;;;;;3.28;2.10;;;;;;;;;;6057505;23;20051;-46
2022/07/08 08:00:37;;;;;;;2.05;1.85;;;;;;;;;;6057642;23;20018;-45
2022/07/08 08:03:03;;;;;;;4.47;1.70;;;;;;;;;;6062034;23;20395;-46
2022/07/08 08:05:30;;;;;;;3.33;2.10;;;;;;;;;;6058271;23;20019;-45
2022/07/08 08:07:57;;;;;;;3.60;2.08;;;;;;;;;;6062242;23;20502;-45
2022/07/08 08:10:23;;;;;;;0.82;0.82;;;;;;;;;;6053135;23;20019;-45
2022/07/08 08:12:51;;;;;;;3.47;1.65;;;;;;;;;;6053113;23;20019;-47
2022/07/08 08:15:18;;;;;;;2.63;1.70;;;;;;;;;;6050069;23;20527;-47
2022/07/08 08:17:44;;;;;;;1.60;1.50;;;;;;;;;;6054906;23;20026;-49
2022/07/08 08:20:12;;;;;;;2.40;1.42;;;;;;;;;;6055948;23;20043;-47
2022/07/08 08:22:39;;;;;;;1.60;1.50;;;;;;;;;;6055784;23;20039;-46
2022/07/08 08:25:06;;;;;;;3.33;1.20;;;;;;;;;;6037035;23;20019;-49
2022/07/08 08:27:33;;;;;;;2.40;1.25;;;;;;;;;;6051328;23;20047;-45
2022/07/08 08:30:01;;;;;;;1.40;1.20;;;;;;;;;;6053572;23;20015;-47
2022/07/08 08:32:27;;;;;;;2.63;1.40;;;;;;;;;;6053475;23;20089;-46
2022/07/08 08:34:54;;;;;;;1.30;1.20;;;;;;;;;;6058320;23;20029;-45
2022/07/08 08:37:24;;;;;;;1.00;0.90;;;;;;;;;;6056582;23;20026;-46
2022/07/08 08:39:51;;;;;;;1.40;1.00;;;;;;;;;;6054242;23;20050;-49
2022/07/08 08:42:18;;;;;;;1.95;1.08;;;;;;;;;;6053763;23;20391;-45
2022/07/08 08:44:44;;;;;;;1.50;1.00;;;;;;;;;;6058112;23;20098;-46
2022/07/08 08:47:13;;;;;;;1.83;0.90;;;;;;;;;;6056892;23;20062;-45
2022/07/08 08:49:40;;;;;;;2.13;1.10;;;;;;;;;;6055072;23;20023;-44
2022/07/08 08:52:10;;;;;;;1.20;1.00;;;;;;;;;;6057212;23;20234;-46
2022/07/08 08:54:37;;;;;;;1.42;1.17;;;;;;;;;;6055418;23;20046;-47
2022/07/08 08:57:05;;;;;;;1.27;1.10;;;;;;;;;;6062134;23;20456;-45
2022/07/08 08:59:33;;;;;;;1.13;1.05;;;;;;;;;;6034865;23;20039;-49
2022/07/08 09:02:00;;;;;;;2.25;1.17;;;;;;;;;;6033797;23;20019;-45
2022/07/08 09:04:28;;;;;;;1.20;1.10;;;;;;;;;;6055619;23;20023;-47
2022/07/08 09:06:55;;;;;;;1.50;1.23;;;;;;;;;;6059130;23;20015;-46
2022/07/08 09:09:21;;;;;;;1.60;1.50;;;;;;;;;;6054353;23;20022;-45
2022/07/08 09:11:48;;;;;;;1.33;1.10;;;;;;;;;;6056136;23;20392;-44
2022/07/08 09:14:15;;;;;;;0.82;0.82;;;;;;;;;;6058061;23;20450;-46
2022/07/08 09:16:42;;;;;;;0.98;0.90;;;;;;;;;;6055780;23;20015;-46
2022/07/08 09:19:14;;;;;;;2.63;1.00;;;;;;;;;;6053605;23;20518;-43
2022/07/08 09:21:51;;;;;;;1.38;1.10;;;;;;;;;;6059532;23;20015;-46
2022/07/08 09:24:18;;;;;;;0.80;0.70;;;;;;;;;;6035919;23;20206;-45
2022/07/08 09:26:45;;;;;;;1.52;1.00;;;;;;;;;;6051891;23;20719;-46
2022/07/08 09:29:11;;;;;;;2.17;1.05;;;;;;;;;;6058651;23;20029;-47
2022/07/08 09:31:39;;;;;;;0.88;0.85;;;;;;;;;;6058556;23;20422;-48
2022/07/08 09:34:10;;;;;;;1.35;0.70;;;;;;;;;;6050962;23;20041;-45
2022/07/08 09:36:45;;;;;;;2.28;1.30;;;;;;;;;;6060165;23;20022;-45
2022/07/08 09:39:16;;;;;;;0.75;0.70;;;;;;;;;;6056321;23;20023;-45
2022/07/08 09:41:46;;;;;;;1.00;0.70;;;;;;;;;;6056907;23;20021;-45
2022/07/08 09:44:15;;;;;;;1.70;0.70;;;;;;;;;;6055893;23;20074;-46
2022/07/08 09:46:42;;;;;;;0.70;0.70;;;;;;;;;;6060735;23;20015;-48
2022/07/08 09:49:08;;;;;;;0.60;0.60;;;;;;;;;;6057552;23;20018;-48
2022/07/08 09:51:36;;;;;;;1.25;0.68;;;;;;;;;;6062965;23;20412;-46
2022/07/08 09:54:10;;;;;;;1.17;0.80;;;;;;;;;;6057863;23;20071;-45
2022/07/08 09:56:37;;;;;;;1.75;0.80;;;;;;;;;;6060485;23;20023;-49
2022/07/08 09:59:03;;;;;;;0.75;0.60;;;;;;;;;;6059841;23;20839;-45
2022/07/08 10:01:31;;;;;;;2.13;0.90;;;;;;;;;;6062692;23;20019;-48
2022/07/08 10:03:58;;;;;;;0.85;0.70;;;;;;;;;;6037723;23;20098;-48
2022/07/08 10:06:24;;;;;;;1.05;0.80;;;;;;;;;;6060256;23;20015;-45
2022/07/08 10:08:51;;;;;;;0.70;0.63;;;;;;;;;;6060312;23;20051;-46
2022/07/08 10:11:19;;;;;;;0.68;0.63;;;;;;;;;;6061475;23;20019;-46
2022/07/08 10:13:46;;;;;;;2.65;0.70;;;;;;;;;;6053814;23;20019;-45
2022/07/08 10:16:13;;;;;;;0.68;0.68;;;;;;;;;;6064789;23;20050;-47
2022/07/08 10:18:41;;;;;;;1.13;0.70;;;;;;;;;;6059803;23;20070;-49
2022/07/08 10:21:10;;;;;;;1.67;0.70;;;;;;;;;;6062098;23;20019;-46
2022/07/08 10:23:38;;;;;;;0.60;0.60;;;;;;;;;;6056583;23;20043;-47
2022/07/08 10:26:06;;;;;;;0.60;0.60;;;;;;;;;;6056087;23;20078;-44
2022/07/08 10:28:37;;;;;;;1.65;0.60;;;;;;;;;;6059902;23;20015;-45
2022/07/08 10:31:04;;;;;;;0.40;0.40;;;;;;;;;;6061853;23;20055;-47
2022/07/08 10:33:36;;;;;;;0.60;0.60;;;;;;;;;;6061267;23;20519;-44
2022/07/08 10:36:06;;;;;;;0.68;0.63;;;;;;;;;;6060524;23;20049;-45
2022/07/08 10:38:37;;;;;;;0.63;0.63;;;;;;;;;;6025893;23;20484;-44
2022/07/08 10:41:05;;;;;;;0.70;0.60;;;;;;;;;;6056427;23;20102;-48
2022/07/08 10:43:32;;;;;;;1.63;0.80;;;;;;;;;;6062881;23;20025;-46
2022/07/08 10:46:01;;;;;;;0.70;0.70;;;;;;;;;;6062473;23;20015;-45
2022/07/08 10:48:28;;;;;;;;;;;;;;;;;;6064459;23;20512;-47
2022/07/08 10:50:55;;;;;;;0.80;0.80;;;;;;;;;;6061965;23;20470;-47
2022/07/08 10:53:21;;;;;;;1.30;0.50;;;;;;;;;;6055142;23;20029;-47
2022/07/08 10:55:48;;;;;;;2.47;0.70;;;;;;;;;;6062367;23;20111;-47
2022/07/08 10:58:14;;;;;;;0.30;0.30;;;;;;;;;;6056927;23;20059;-45
2022/07/08 11:00:41;;;;;;;2.03;0.50;;;;;;;;;;6061326;23;20521;-48
2022/07/08 11:03:11;;;;;;;0.55;0.55;;;;;;;;;;6057990;23;20019;-50
2022/07/08 11:05:38;;;;;;;1.27;0.63;;;;;;;;;;6061882;23;20449;-46
2022/07/08 11:08:23;;;;;;;0.82;0.68;;;;;;;;;;6034909;23;20019;-45
2022/07/08 11:10:51;;;;;;;0.73;0.43;;;;;;;;;;6062877;23;20018;-46
2022/07/08 11:13:18;;;;;;;0.40;0.40;;;;;;;;;;6058421;23;20054;-45
2022/07/08 11:15:45;;;;;;;0.52;0.52;;;;;;;;;;6061135;23;20029;-45
2022/07/08 11:18:13;;;;;;;0.80;0.80;;;;;;;;;;6056397;23;20015;-46
2022/07/08 11:20:39;;;;;;;0.38;0.38;;;;;;;;;;6060945;23;20554;-47
2022/07/08 11:23:06;;;;;;;5.45;0.50;;;;;;;;;;6028723;23;20415;-46
2022/07/08 11:25:33;;;;;;;1.65;0.57;;;;;;;;;;6060716;23;20066;-45
2022/07/08 11:28:00;;;;;;;2.30;0.57;;;;;;;;;;6060517;23;20015;-47
2022/07/08 11:30:33;;;;;;;1.77;0.43;;;;;;;;;;6055881;23;20033;-46
2022/07/08 11:33:00;;;;;;;0.50;0.50;;;;;;;;;;6062409;23;20022;-46
2022/07/08 11:35:28;;;;;;;3.15;0.50;;;;;;;;;;6055115;23;20046;-45
2022/07/08 11:37:54;;;;;;;0.43;0.43;;;;;;;;;;6057552;23;20023;-46
2022/07/08 11:40:21;;;;;;;0.50;0.50;;;;;;;;;;6056750;23;20046;-45
2022/07/08 11:42:47;;;;;;;0.80;0.40;;;;;;;;;;6059944;23;20014;-44
2022/07/08 11:45:14;;;;;;;2.25;0.65;;;;;;;;;;6058145;23;20015;-49
2022/07/08 11:47:40;;;;;;;0.30;0.30;;;;;;;;;;6062067;23;20023;-46
2022/07/08 11:50:08;;;;;;;0.50;0.50;;;;;;;;;;6030520;23;20022;-45
2022/07/08 11:52:36;;;;;;;0.20;0.20;;;;;;;;;;6060107;23;20019;-46
2022/07/08 11:55:06;;;;;;;1.23;0.52;;;;;;;;;;6059113;23;20119;-46
2022/07/08 11:57:33;;;;;;;1.80;0.52;;;;;;;;;;6061403;23;20019;-45
2022/07/08 11:59:59;;;;;;;2.53;0.60;;;;;;;;;;6050683;23;20094;-47
2022/07/08 12:02:26;;;;;;;2.25;0.70;;;;;;;;;;6061312;23;20025;-46
2022/07/08 12:04:52;;;;;;;0.93;0.50;;;;;;;;;;6043309;23;20335;-48
2022/07/08 12:07:20;;;;;;;1.02;0.40;;;;;;;;;;6036879;23;20019;-44
2022/07/08 12:09:54;;;;;;;1.67;0.50;;;;;;;;;;6059227;23;20026;-48
2022/07/08 12:12:21;;;;;;;0.57;0.52;;;;;;;;;;6062091;23;20051;-46
2022/07/08 12:14:47;;;;;;;0.70;0.70;;;;;;;;;;6056713;23;20019;-46
2022/07/08 12:17:21;;;;;;;2.17;0.50;;;;;;;;;;6055021;23;20063;-45
2022/07/08 12:19:48;;;;;;;0.35;0.28;;;;;;;;;;6053883;23;20075;-45
2022/07/08 12:22:15;;;;;;;0.35;0.35;;;;;;;;;;6058667;23;20014;-47
2022/07/08 12:24:42;;;;;;;1.08;0.65;;;;;;;;;;6058923;23;20015;-50
2022/07/08 12:27:11;;;;;;;0.38;0.38;;;;;;;;;;6055660;23;20078;-45
2022/07/08 12:29:38;;;;;;;0.50;0.50;;;;;;;;;;6058330;23;20036;-45
2022/07/08 12:32:05;;;;;;;0.43;0.43;;;;;;;;;;6056435;23;20029;-45
2022/07/08 12:34:31;;;;;;;0.60;0.60;;;;;;;;;;6060234;23;20712;-46
2022/07/08 12:37:13;;;;;;;0.40;0.40;;;;;;;;;;6054733;23;20387;-45
2022/07/08 12:39:39;;;;;;;0.82;0.47;;;;;;;;;;6034391;23;20019;-44
2022/07/08 12:42:06;;;;;;;1.35;0.65;;;;;;;;;;6054219;23;20019;-49
2022/07/08 12:44:39;;;;;;;2.85;0.95;;;;;;;;;;6060552;23;20022;-47
2022/07/08 12:47:06;;;;;;;1.65;0.47;;;;;;;;;;6060665;23;20051;-46
2022/07/08 12:49:34;;;;;;;0.70;0.32;;;;;;;;;;6060298;23;20015;-46
2022/07/08 12:52:01;;;;;;;1.35;0.50;;;;;;;;;;6060641;23;20015;-49
2022/07/08 12:54:28;;;;;;;0.45;0.43;;;;;;;;;;6061779;23;20108;-45
2022/07/08 12:56:56;;;;;;;0.85;0.50;;;;;;;;;;6062773;23;20440;-45
2022/07/08 12:59:22;;;;;;;4.47;0.50;;;;;;;;;;6058855;23;20057;-46
2022/07/08 13:01:51;;;;;;;2.38;0.50;;;;;;;;;;6063076;23;20146;-46
2022/07/08 13:04:17;;;;;;;0.63;0.52;;;;;;;;;;6058665;23;20018;-46
2022/07/08 13:06:44;;;;;;;1.25;0.50;;;;;;;;;;6058046;23;20015;-45
2022/07/08 13:09:12;;;;;;;0.63;0.50;;;;;;;;;;6059959;23;20022;-47
2022/07/08 13:11:39;;;;;;;0.60;0.30;;;;;;;;;;6057998;23;20026;-46
2022/07/08 13:14:05;;;;;;;0.50;0.50;;;;;;;;;;6059327;23;20082;-47
2022/07/08 13:16:32;;;;;;;1.30;0.40;;;;;;;;;;6033883;23;20081;-47
2022/07/08 13:19:00;;;;;;;0.60;0.60;;;;;;;;;;6060778;23;20045;-50
2022/07/08 13:21:27;;;;;;;0.50;0.40;;;;;;;;;;6057204;23;20019;-49
2022/07/08 13:23:54;;;;;;;1.88;0.70;;;;;;;;;;6059951;23;20015;-46
2022/07/08 13:26:20;;;;;;;0.60;0.52;;;;;;;;;;6060219;23;20046;-47
2022/07/08 13:28:47;;;;;;;0.50;0.50;;;;;;;;;;6062028;23;20019;-45
2022/07/08 13:31:13;;;;;;;0.40;0.40;;;;;;;;;;6060399;23;20023;-47
2022/07/08 13:33:40;;;;;;;0.73;0.60;;;;;;;;;;6061299;23;20125;-47
2022/07/08 13:36:08;;;;;;;0.60;0.60;;;;;;;;;;6061278;23;20022;-50
2022/07/08 13:38:34;;;;;;;0.40;0.40;;;;;;;;;;6059378;23;20074;-47
2022/07/08 13:41:00;;;;;;;0.80;0.60;;;;;;;;;;6062335;23;20090;-45
2022/07/08 13:43:27;;;;;;;0.73;0.50;;;;;;;;;;6054654;23;20165;-45
2022/07/08 13:45:54;;;;;;;0.40;0.40;;;;;;;;;;6061416;23;20382;-47
2022/07/08 13:48:20;;;;;;;0.50;0.50;;;;;;;;;;6033221;23;20023;-47
2022/07/08 13:50:47;;;;;;;0.47;0.47;;;;;;;;;;6061231;23;20018;-46
2022/07/08 13:53:15;;;;;;;0.98;0.52;;;;;;;;;;6058366;23;20046;-49
2022/07/08 13:55:41;;;;;;;1.15;0.82;;;;;;;;;;6053790;23;20019;-47
2022/07/08 13:58:08;;;;;;;0.70;0.57;;;;;;;;;;6060180;23;20046;-46
2022/07/08 14:00:34;;;;;;;0.75;0.50;;;;;;;;;;6032645;23;20053;-47
2022/07/08 14:03:01;;;;;;;0.40;0.40;;;;;;;;;;6058035;23;20079;-47
2022/07/08 14:05:27;;;;;;;1.05;0.63;;;;;;;;;;6063676;23;20029;-49
2022/07/08 14:07:54;;;;;;;0.45;0.40;;;;;;;;;;6054166;23;20047;-45
2022/07/08 14:10:22;;;;;;;0.80;0.70;;;;;;;;;;6061521;23;20079;-46
2022/07/08 14:12:48;;;;;;;0.35;0.32;;;;;;;;;;6057731;23;20027;-50
2022/07/08 14:15:15;;;;;;;0.40;0.40;;;;;;;;;;6062231;23;20051;-46
2022/07/08 14:17:42;;;;;;;0.30;0.30;;;;;;;;;;6056740;23;20018;-47
2022/07/08 14:20:10;;;;;;;0.50;0.30;;;;;;;;;;6061356;23;20097;-45
2022/07/08 14:22:36;;;;;;;0.70;0.40;;;;;;;;;;6056841;23;20478;-45
2022/07/08 14:25:04;;;;;;;0.93;0.43;;;;;;;;;;6062040;23;20019;-45
2022/07/08 14:27:32;;;;;;;0.30;0.30;;;;;;;;;;6057272;23;20029;-49
2022/07/08 14:29:58;;;;;;;1.02;0.40;;;;;;;;;;6063900;23;20015;-47
2022/07/08 14:32:25;;;;;;;0.55;0.47;;;;;;;;;;6061168;23;20014;-44
2022/07/08 14:34:51;;;;;;;1.30;0.35;;;;;;;;;;6061210;23;20023;-47
2022/07/08 14:37:18;;;;;;;1.75;0.50;;;;;;;;;;6059173;23;20043;-46
2022/07/08 14:39:45;;;;;;;1.20;0.40;;;;;;;;;;6057388;23;20023;-45
2022/07/08 14:42:11;;;;;;;0.63;0.40;;;;;;;;;;6056845;23;20050;-46
2022/07/08 14:44:39;;;;;;;0.85;0.40;;;;;;;;;;6037408;23;20019;-45